BAW157 EGCC-EGLL
Flight info
| Callsign | BAW157 |
|---|---|
| Flight time | 0h 32m |
| Altitude | 19000 |
| Route | LISTO L612 HON |
| Aircraft | B738/M-SDE2E3FGHIRWXY/LB1 |
Departure
| Time | 2026-05-03 23:01 |
|---|---|
| Airport | Manchester Airport (EGCC) |
Arrival
| Time | 2026-05-03 23:34 |
|---|---|
| Airport | London Heathrow Airport (EGLL) |
| Time | Latitude | Longitude | Altitude | Speed | Heading |
|---|---|---|---|---|---|
| 2026-05-03 22:42 | 53.36039 | -2.26884 | 255 ft | 0 kts | 315° |
| 2026-05-03 22:52 | 53.36035 | -2.26878 | 254 ft | 2 kts | 315° |
| 2026-05-03 22:53 | 53.36025 | -2.26860 | 255 ft | 2 kts | 315° |
| 2026-05-03 22:53 | 53.36014 | -2.26842 | 255 ft | 2 kts | 315° |
| 2026-05-03 22:53 | 53.36005 | -2.26828 | 255 ft | 0 kts | 315° |
| 2026-05-03 22:53 | 53.35999 | -2.26813 | 256 ft | 2 kts | 274° |
| 2026-05-03 22:54 | 53.36002 | -2.26796 | 256 ft | 0 kts | 233° |
| 2026-05-03 22:54 | 53.36000 | -2.26800 | 256 ft | 2 kts | 237° |
| 2026-05-03 22:54 | 53.35996 | -2.26809 | 256 ft | 0 kts | 234° |
| 2026-05-03 22:56 | 53.35996 | -2.26810 | 256 ft | 0 kts | 234° |
| 2026-05-03 22:56 | 53.35988 | -2.26825 | 256 ft | 6 kts | 225° |
| 2026-05-03 22:56 | 53.35912 | -2.26847 | 257 ft | 14 kts | 188° |
| 2026-05-03 22:57 | 53.35843 | -2.26962 | 256 ft | 14 kts | 240° |
| 2026-05-03 22:57 | 53.35778 | -2.27118 | 250 ft | 17 kts | 233° |
| 2026-05-03 22:57 | 53.35705 | -2.27279 | 248 ft | 17 kts | 230° |
| 2026-05-03 22:57 | 53.35628 | -2.27433 | 244 ft | 17 kts | 231° |
| 2026-05-03 22:58 | 53.35549 | -2.27594 | 240 ft | 17 kts | 231° |
| 2026-05-03 22:58 | 53.35472 | -2.27760 | 237 ft | 18 kts | 246° |
| 2026-05-03 22:58 | 53.35425 | -2.27968 | 234 ft | 20 kts | 226° |
| 2026-05-03 22:58 | 53.35331 | -2.28132 | 231 ft | 19 kts | 226° |
| 2026-05-03 22:59 | 53.35240 | -2.28291 | 230 ft | 18 kts | 226° |
| 2026-05-03 22:59 | 53.35157 | -2.28449 | 228 ft | 17 kts | 233° |
| 2026-05-03 22:59 | 53.35086 | -2.28607 | 226 ft | 16 kts | 232° |
| 2026-05-03 22:59 | 53.35010 | -2.28754 | 224 ft | 18 kts | 229° |
| 2026-05-03 23:00 | 53.34898 | -2.28948 | 219 ft | 28 kts | 224° |
| 2026-05-03 23:00 | 53.34749 | -2.29222 | 210 ft | 28 kts | 231° |
| 2026-05-03 23:00 | 53.34588 | -2.29322 | 204 ft | 24 kts | 167° |
| 2026-05-03 23:00 | 53.34583 | -2.29142 | 209 ft | 18 kts | 52° |
| 2026-05-03 23:01 | 53.34742 | -2.28809 | 219 ft | 67 kts | 51° |
| 2026-05-03 23:01 | 53.35175 | -2.27925 | 234 ft | 126 kts | 51° |
| 2026-05-03 23:01 | 53.35833 | -2.26581 | 304 ft | 167 kts | 51° |
| 2026-05-03 23:01 | 53.36569 | -2.25084 | 881 ft | 166 kts | 49° |
| 2026-05-03 23:02 | 53.37332 | -2.23606 | 1378 ft | 176 kts | 50° |
| 2026-05-03 23:02 | 53.37915 | -2.21781 | 1912 ft | 186 kts | 78° |
| 2026-05-03 23:02 | 53.37742 | -2.19529 | 2175 ft | 211 kts | 113° |
| 2026-05-03 23:02 | 53.36795 | -2.17554 | 2519 ft | 231 kts | 140° |
| 2026-05-03 23:03 | 53.35870 | -2.16660 | 2724 ft | 245 kts | 160° |
| 2026-05-03 23:03 | 53.34150 | -2.16368 | 3208 ft | 258 kts | 185° |
| 2026-05-03 23:03 | 53.32330 | -2.16828 | 3709 ft | 268 kts | 189° |
| 2026-05-03 23:03 | 53.30492 | -2.17318 | 4311 ft | 273 kts | 187° |
| 2026-05-03 23:04 | 53.28601 | -2.17712 | 5008 ft | 274 kts | 186° |
| 2026-05-03 23:04 | 53.26702 | -2.18041 | 5682 ft | 276 kts | 185° |
| 2026-05-03 23:04 | 53.24806 | -2.18344 | 6344 ft | 278 kts | 186° |
| 2026-05-03 23:04 | 53.22870 | -2.18640 | 7021 ft | 280 kts | 185° |
| 2026-05-03 23:05 | 53.20921 | -2.18932 | 7669 ft | 282 kts | 186° |
| 2026-05-03 23:05 | 53.18980 | -2.19236 | 8305 ft | 284 kts | 186° |
| 2026-05-03 23:05 | 53.17020 | -2.19542 | 8912 ft | 287 kts | 186° |
| 2026-05-03 23:05 | 53.15013 | -2.19753 | 9486 ft | 291 kts | 179° |
| 2026-05-03 23:06 | 53.13026 | -2.19214 | 10070 ft | 293 kts | 162° |
| 2026-05-03 23:06 | 53.11084 | -2.17964 | 10410 ft | 306 kts | 157° |
| 2026-05-03 23:06 | 53.09101 | -2.16490 | 10716 ft | 323 kts | 156° |
| 2026-05-03 23:06 | 53.07004 | -2.14930 | 11185 ft | 338 kts | 157° |
| 2026-05-03 23:07 | 53.04812 | -2.13349 | 11632 ft | 354 kts | 158° |
| 2026-05-03 23:07 | 53.02519 | -2.11739 | 12142 ft | 366 kts | 158° |
| 2026-05-03 23:07 | 53.00138 | -2.10092 | 12872 ft | 372 kts | 158° |
| 2026-05-03 23:07 | 52.97755 | -2.08455 | 13568 ft | 374 kts | 158° |
| 2026-05-03 23:08 | 52.95347 | -2.06804 | 14077 ft | 379 kts | 158° |
| 2026-05-03 23:08 | 52.92919 | -2.05142 | 14613 ft | 382 kts | 158° |
| 2026-05-03 23:08 | 52.90465 | -2.03462 | 15190 ft | 384 kts | 158° |
| 2026-05-03 23:08 | 52.87968 | -2.01754 | 15728 ft | 386 kts | 158° |
| 2026-05-03 23:09 | 52.85478 | -2.00050 | 16266 ft | 389 kts | 158° |
| 2026-05-03 23:09 | 52.83046 | -1.98387 | 16761 ft | 391 kts | 158° |
| 2026-05-03 23:09 | 52.80540 | -1.96675 | 17286 ft | 393 kts | 158° |
| 2026-05-03 23:09 | 52.77995 | -1.94938 | 17820 ft | 395 kts | 158° |
| 2026-05-03 23:10 | 52.75465 | -1.93214 | 18384 ft | 395 kts | 158° |
| 2026-05-03 23:10 | 52.72929 | -1.91488 | 18857 ft | 397 kts | 158° |
| 2026-05-03 23:10 | 52.70375 | -1.89750 | 18939 ft | 403 kts | 158° |
| 2026-05-03 23:10 | 52.67775 | -1.87984 | 18940 ft | 401 kts | 158° |
| 2026-05-03 23:11 | 52.65237 | -1.86261 | 18947 ft | 399 kts | 158° |
| 2026-05-03 23:11 | 52.62672 | -1.84525 | 18942 ft | 399 kts | 158° |
| 2026-05-03 23:11 | 52.60105 | -1.82789 | 18937 ft | 398 kts | 158° |
| 2026-05-03 23:11 | 52.57538 | -1.81057 | 18941 ft | 398 kts | 158° |
| 2026-05-03 23:12 | 52.54966 | -1.79323 | 18940 ft | 399 kts | 158° |
| 2026-05-03 23:12 | 52.52428 | -1.77616 | 18941 ft | 398 kts | 158° |
| 2026-05-03 23:12 | 52.49864 | -1.75891 | 18946 ft | 398 kts | 158° |
| 2026-05-03 23:12 | 52.47299 | -1.74169 | 18950 ft | 404 kts | 158° |
| 2026-05-03 23:13 | 52.44633 | -1.72382 | 18944 ft | 416 kts | 158° |
| 2026-05-03 23:13 | 52.41951 | -1.70588 | 18940 ft | 423 kts | 159° |
| 2026-05-03 23:13 | 52.39232 | -1.68742 | 18938 ft | 424 kts | 157° |
| 2026-05-03 23:13 | 52.36562 | -1.66622 | 18942 ft | 424 kts | 152° |
| 2026-05-03 23:14 | 52.34085 | -1.64072 | 18944 ft | 424 kts | 146° |
| 2026-05-03 23:14 | 52.31720 | -1.61131 | 18949 ft | 425 kts | 142° |
| 2026-05-03 23:14 | 52.29458 | -1.58040 | 18943 ft | 426 kts | 140° |
| 2026-05-03 23:14 | 52.27243 | -1.54881 | 18938 ft | 425 kts | 139° |
| 2026-05-03 23:15 | 52.25035 | -1.51690 | 18930 ft | 425 kts | 139° |
| 2026-05-03 23:15 | 52.22812 | -1.48470 | 18931 ft | 426 kts | 139° |
| 2026-05-03 23:15 | 52.20606 | -1.45299 | 18928 ft | 425 kts | 140° |
| 2026-05-03 23:15 | 52.18377 | -1.42124 | 18923 ft | 425 kts | 140° |
| 2026-05-03 23:16 | 52.16149 | -1.38977 | 18920 ft | 425 kts | 140° |
| 2026-05-03 23:16 | 52.13920 | -1.35848 | 18920 ft | 425 kts | 140° |
| 2026-05-03 23:16 | 52.11653 | -1.32681 | 18804 ft | 426 kts | 141° |
| 2026-05-03 23:16 | 52.09421 | -1.29571 | 18439 ft | 425 kts | 141° |
| 2026-05-03 23:17 | 52.07164 | -1.26433 | 17946 ft | 422 kts | 141° |
| 2026-05-03 23:17 | 52.04974 | -1.23391 | 17348 ft | 419 kts | 141° |
| 2026-05-03 23:17 | 52.02760 | -1.20321 | 16707 ft | 416 kts | 141° |
| 2026-05-03 23:17 | 52.00577 | -1.17299 | 16069 ft | 413 kts | 141° |
| 2026-05-03 23:18 | 51.98402 | -1.14291 | 15410 ft | 410 kts | 141° |
| 2026-05-03 23:18 | 51.96255 | -1.11326 | 14942 ft | 401 kts | 141° |
| 2026-05-03 23:18 | 51.94218 | -1.08513 | 14729 ft | 377 kts | 141° |
| 2026-05-03 23:18 | 51.92265 | -1.05816 | 14302 ft | 362 kts | 141° |
| 2026-05-03 23:19 | 51.90384 | -1.03225 | 13850 ft | 350 kts | 141° |
| 2026-05-03 23:19 | 51.88562 | -1.00719 | 13457 ft | 337 kts | 141° |
| 2026-05-03 23:19 | 51.86809 | -0.98314 | 13070 ft | 326 kts | 140° |
| 2026-05-03 23:19 | 51.85226 | -0.95799 | 12591 ft | 318 kts | 130° |
| 2026-05-03 23:20 | 51.84043 | -0.92865 | 12274 ft | 306 kts | 119° |
| 2026-05-03 23:20 | 51.83134 | -0.89818 | 11961 ft | 294 kts | 116° |
| 2026-05-03 23:20 | 51.82332 | -0.86882 | 11701 ft | 282 kts | 116° |
| 2026-05-03 23:20 | 51.81543 | -0.84056 | 11437 ft | 270 kts | 117° |
| 2026-05-03 23:21 | 51.80749 | -0.81354 | 11050 ft | 265 kts | 118° |
| 2026-05-03 23:21 | 51.79941 | -0.78705 | 10606 ft | 262 kts | 118° |
| 2026-05-03 23:21 | 51.79134 | -0.76094 | 10164 ft | 260 kts | 118° |
| 2026-05-03 23:21 | 51.78331 | -0.73496 | 9765 ft | 258 kts | 118° |
| 2026-05-03 23:22 | 51.76746 | -0.68354 | 9100 ft | 255 kts | 118° |
| 2026-05-03 23:22 | 51.75962 | -0.65805 | 8748 ft | 254 kts | 118° |
| 2026-05-03 23:22 | 51.75169 | -0.63238 | 8402 ft | 253 kts | 117° |
| 2026-05-03 23:23 | 51.74395 | -0.60732 | 8073 ft | 251 kts | 117° |
| 2026-05-03 23:23 | 51.73622 | -0.58228 | 7702 ft | 253 kts | 117° |
| 2026-05-03 23:23 | 51.72815 | -0.55652 | 7102 ft | 261 kts | 120° |
| 2026-05-03 23:23 | 51.71872 | -0.53216 | 6888 ft | 248 kts | 126° |
| 2026-05-03 23:24 | 51.70872 | -0.50991 | 6907 ft | 246 kts | 127° |
| 2026-05-03 23:24 | 51.69853 | -0.48786 | 6954 ft | 247 kts | 127° |
| 2026-05-03 23:24 | 51.68826 | -0.46538 | 6985 ft | 249 kts | 127° |
| 2026-05-03 23:24 | 51.67805 | -0.44284 | 6967 ft | 248 kts | 127° |
| 2026-05-03 23:25 | 51.66793 | -0.42044 | 6963 ft | 247 kts | 127° |
| 2026-05-03 23:25 | 51.65774 | -0.39782 | 6970 ft | 249 kts | 127° |
| 2026-05-03 23:25 | 51.64765 | -0.37540 | 6973 ft | 248 kts | 127° |
| 2026-05-03 23:25 | 51.63746 | -0.35284 | 6972 ft | 248 kts | 127° |
| 2026-05-03 23:26 | 51.62734 | -0.33053 | 6971 ft | 248 kts | 128° |
| 2026-05-03 23:26 | 51.61721 | -0.30811 | 6972 ft | 248 kts | 127° |
| 2026-05-03 23:26 | 51.60681 | -0.28542 | 6759 ft | 251 kts | 128° |
| 2026-05-03 23:26 | 51.59641 | -0.26312 | 6401 ft | 248 kts | 128° |
| 2026-05-03 23:27 | 51.58624 | -0.24108 | 6137 ft | 244 kts | 127° |
| 2026-05-03 23:27 | 51.57633 | -0.21936 | 5951 ft | 239 kts | 127° |
| 2026-05-03 23:27 | 51.56649 | -0.19771 | 5576 ft | 242 kts | 127° |
| 2026-05-03 23:27 | 51.55664 | -0.17610 | 5211 ft | 238 kts | 127° |
| 2026-05-03 23:28 | 51.54695 | -0.15491 | 4901 ft | 235 kts | 127° |
| 2026-05-03 23:28 | 51.53727 | -0.13384 | 4618 ft | 236 kts | 129° |
| 2026-05-03 23:28 | 51.52496 | -0.11691 | 4259 ft | 233 kts | 160° |
| 2026-05-03 23:28 | 51.50952 | -0.11319 | 3981 ft | 221 kts | 188° |
| 2026-05-03 23:29 | 51.49523 | -0.11934 | 3696 ft | 210 kts | 205° |
| 2026-05-03 23:29 | 51.48304 | -0.13102 | 3469 ft | 198 kts | 226° |
| 2026-05-03 23:29 | 51.47662 | -0.14951 | 3474 ft | 189 kts | 263° |
| 2026-05-03 23:29 | 51.47709 | -0.17062 | 3368 ft | 192 kts | 278° |
| 2026-05-03 23:30 | 51.47810 | -0.19106 | 3098 ft | 177 kts | 271° |
| 2026-05-03 23:30 | 51.47805 | -0.21016 | 2875 ft | 170 kts | 270° |
| 2026-05-03 23:30 | 51.47794 | -0.22886 | 2622 ft | 165 kts | 271° |
| 2026-05-03 23:30 | 51.47794 | -0.24737 | 2415 ft | 166 kts | 271° |
| 2026-05-03 23:31 | 51.47794 | -0.26546 | 2160 ft | 163 kts | 271° |
| 2026-05-03 23:31 | 51.47791 | -0.28360 | 1952 ft | 164 kts | 271° |
| 2026-05-03 23:31 | 51.47789 | -0.30198 | 1722 ft | 162 kts | 272° |
| 2026-05-03 23:31 | 51.47786 | -0.31955 | 1510 ft | 158 kts | 271° |
| 2026-05-03 23:32 | 51.47784 | -0.33725 | 1293 ft | 157 kts | 271° |
| 2026-05-03 23:32 | 51.47781 | -0.35461 | 1081 ft | 156 kts | 270° |
| 2026-05-03 23:32 | 51.47778 | -0.37188 | 872 ft | 155 kts | 270° |
| 2026-05-03 23:32 | 51.47779 | -0.38912 | 661 ft | 153 kts | 270° |
| 2026-05-03 23:33 | 51.47773 | -0.40604 | 468 ft | 153 kts | 269° |
| 2026-05-03 23:33 | 51.47765 | -0.42312 | 263 ft | 152 kts | 269° |
| 2026-05-03 23:33 | 51.47773 | -0.43994 | 87 ft | 150 kts | 270° |
| 2026-05-03 23:33 | 51.47765 | -0.45663 | 89 ft | 151 kts | 268° |
| 2026-05-03 23:34 | 51.47759 | -0.47132 | 88 ft | 99 kts | 284° |
| 2026-05-03 23:34 | 51.47744 | -0.47981 | 87 ft | 63 kts | 264° |
| 2026-05-03 23:34 | 51.47738 | -0.48561 | 87 ft | 48 kts | 270° |
| 2026-05-03 23:34 | 51.47727 | -0.49003 | 85 ft | 21 kts | 267° |
| 2026-05-03 23:35 | 51.47677 | -0.49037 | 85 ft | 7 kts | 132° |
| 2026-05-03 23:35 | 51.47592 | -0.49005 | 86 ft | 17 kts | 171° |
| 2026-05-03 23:35 | 51.47559 | -0.48986 | 86 ft | 0 kts | 154° |
| 2026-05-03 23:36 | 51.47534 | -0.48967 | 87 ft | 12 kts | 152° |
| 2026-05-03 23:37 | 51.47485 | -0.48863 | 87 ft | 10 kts | 118° |
| 2026-05-03 23:37 | 51.47431 | -0.48828 | 88 ft | 6 kts | 177° |